createdAt,value
2023-12-10T00:01:03.714Z,35.97
2023-12-10T00:03:30.560Z,25.92
2023-12-10T00:06:04.412Z,21.83
2023-12-10T00:08:38.011Z,21.25
2023-12-10T00:11:04.804Z,31.27
2023-12-10T00:13:31.327Z,25.45
2023-12-10T00:15:57.924Z,30.42
2023-12-10T00:18:24.698Z,19.85
2023-12-10T00:20:51.333Z,30.08
2023-12-10T00:23:17.870Z,29.33
2023-12-10T00:25:44.990Z,25.63
2023-12-10T00:28:11.641Z,26.75
2023-12-10T00:30:38.870Z,24.10
2023-12-10T00:33:05.524Z,21.35
2023-12-10T00:35:32.170Z,20.00
2023-12-10T00:37:58.747Z,25.70
2023-12-10T00:40:25.312Z,30.15
2023-12-10T00:42:52.491Z,19.98
2023-12-10T00:45:19.212Z,27.05
2023-12-10T00:47:45.834Z,21.42
2023-12-10T00:50:12.733Z,26.85
2023-12-10T00:52:39.743Z,22.85
2023-12-10T00:55:06.517Z,22.50
2023-12-10T00:57:33.941Z,23.55
2023-12-10T01:00:00.588Z,31.58
2023-12-10T01:02:27.517Z,36.00
2023-12-10T01:04:54.760Z,31.35
2023-12-10T01:07:21.363Z,24.23
2023-12-10T01:09:48.029Z,21.83
2023-12-10T01:12:14.590Z,26.65
2023-12-10T01:14:41.173Z,35.15
2023-12-10T01:17:09.342Z,24.15
2023-12-10T01:19:36.204Z,20.67
2023-12-10T01:22:04.654Z,26.75
2023-12-10T01:24:31.431Z,29.65
2023-12-10T01:26:57.976Z,20.75
2023-12-10T01:29:26.890Z,31.10
2023-12-10T01:31:53.470Z,28.63
2023-12-10T01:34:20.249Z,26.67
2023-12-10T01:36:47.030Z,18.92
2023-12-10T01:39:16.352Z,29.35
2023-12-10T01:41:43.046Z,31.85
2023-12-10T01:44:11.142Z,37.58
2023-12-10T01:46:37.942Z,27.83
2023-12-10T01:49:09.163Z,23.45
2023-12-10T01:51:37.896Z,27.30
2023-12-10T01:54:04.931Z,29.13
2023-12-10T01:56:31.822Z,29.70
2023-12-10T01:58:59.604Z,28.63
2023-12-10T02:01:27.314Z,28.98
2023-12-10T02:03:54.789Z,19.58
2023-12-10T02:06:23.447Z,27.73
2023-12-10T02:08:50.034Z,26.38
2023-12-10T02:11:17.238Z,26.48
2023-12-10T02:13:43.858Z,25.73
2023-12-10T02:16:10.465Z,26.77
2023-12-10T02:18:37.210Z,23.73
2023-12-10T02:21:04.108Z,20.58
2023-12-10T02:23:47.609Z,22.42
2023-12-10T02:26:14.247Z,24.88
2023-12-10T02:28:40.922Z,20.27
2023-12-10T02:31:08.097Z,21.10
2023-12-10T02:33:34.979Z,15.75
2023-12-10T02:36:01.674Z,18.67
2023-12-10T02:38:28.348Z,19.60
2023-12-10T02:40:55.495Z,19.40
2023-12-10T02:43:22.370Z,18.67
2023-12-10T02:45:49.113Z,22.05
2023-12-10T02:48:16.008Z,14.23
2023-12-10T02:50:42.706Z,18.17
2023-12-10T02:53:09.497Z,23.27
2023-12-10T02:55:36.048Z,20.80
2023-12-10T02:58:05.582Z,21.10
2023-12-10T03:00:32.831Z,31.38
2023-12-10T03:02:59.770Z,20.20
2023-12-10T03:05:26.413Z,22.92
2023-12-10T03:07:53.630Z,19.45
2023-12-10T03:10:21.229Z,18.42
2023-12-10T03:12:47.886Z,19.85
2023-12-10T03:15:14.555Z,27.40
2023-12-10T03:17:41.221Z,24.75
2023-12-10T03:20:10.549Z,19.33
2023-12-10T03:22:37.235Z,20.85
2023-12-10T03:25:04.832Z,17.85
2023-12-10T03:27:31.400Z,19.83
2023-12-10T03:29:58.206Z,22.60
2023-12-10T03:32:24.849Z,26.92
2023-12-10T03:34:51.478Z,20.60
2023-12-10T03:37:18.108Z,30.15
2023-12-10T03:39:44.743Z,27.05
2023-12-10T03:42:11.391Z,19.08
2023-12-10T03:44:37.927Z,24.95
2023-12-10T03:47:04.663Z,19.60
2023-12-10T03:49:31.392Z,26.13
2023-12-10T03:51:58.279Z,23.77
2023-12-10T03:54:25.518Z,25.25
2023-12-10T03:56:52.062Z,20.15
2023-12-10T03:59:18.677Z,20.63
2023-12-10T04:01:45.305Z,25.63
2023-12-10T04:04:15.002Z,23.73
2023-12-10T04:06:42.270Z,26.63
2023-12-10T04:09:09.543Z,29.10
2023-12-10T04:11:37.075Z,25.33
2023-12-10T04:14:04.517Z,24.73
2023-12-10T04:16:31.550Z,24.45
2023-12-10T04:18:58.543Z,18.35
2023-12-10T04:21:25.278Z,20.90
2023-12-10T04:23:52.109Z,20.20
2023-12-10T04:26:18.885Z,25.55
2023-12-10T04:28:45.928Z,17.02
2023-12-10T04:31:12.727Z,16.08
2023-12-10T04:33:39.516Z,21.33
2023-12-10T04:36:06.613Z,17.98
2023-12-10T04:38:33.452Z,24.30
2023-12-10T04:41:00.091Z,21.75
2023-12-10T04:43:26.669Z,20.98
2023-12-10T04:45:53.331Z,22.60
2023-12-10T04:48:20.094Z,25.42
2023-12-10T04:50:46.765Z,23.67
2023-12-10T04:53:13.290Z,20.60
2023-12-10T04:55:40.012Z,12.30
2023-12-10T04:58:06.549Z,17.85
2023-12-10T05:00:33.127Z,19.75
2023-12-10T05:02:59.739Z,21.05
2023-12-10T05:05:26.340Z,16.80
2023-12-10T05:07:52.908Z,15.63
2023-12-10T05:10:19.805Z,19.02
2023-12-10T05:12:46.882Z,17.80
2023-12-10T05:15:13.570Z,14.20
2023-12-10T05:17:40.350Z,15.00
2023-12-10T05:20:08.942Z,15.85
2023-12-10T05:22:35.607Z,16.45
2023-12-10T05:25:02.400Z,15.00
2023-12-10T05:27:33.694Z,14.15
2023-12-10T05:30:01.068Z,20.40
2023-12-10T05:32:29.166Z,17.73
2023-12-10T05:34:56.003Z,15.80
2023-12-10T05:37:22.770Z,10.70
2023-12-10T05:39:49.340Z,13.10
2023-12-10T05:42:15.963Z,14.07
2023-12-10T05:44:42.537Z,23.23
2023-12-10T05:47:09.047Z,17.75
2023-12-10T05:49:35.634Z,14.80
2023-12-10T05:52:02.269Z,16.48
2023-12-10T05:54:28.970Z,14.65
2023-12-10T05:56:55.814Z,14.05
2023-12-10T05:59:22.320Z,12.30
2023-12-10T06:01:49.052Z,11.48
2023-12-10T06:04:15.734Z,16.70
2023-12-10T06:06:42.366Z,13.77
2023-12-10T06:09:10.546Z,16.02
2023-12-10T06:11:37.135Z,15.60
2023-12-10T06:14:03.699Z,14.00
2023-12-10T06:16:30.461Z,15.45
2023-12-10T06:18:57.167Z,12.73
2023-12-10T06:21:23.896Z,12.15
2023-12-10T06:23:50.485Z,13.32
2023-12-10T06:26:16.986Z,18.05
2023-12-10T06:28:43.578Z,14.68
2023-12-10T06:31:10.730Z,13.05
2023-12-10T06:33:37.596Z,16.23
2023-12-10T06:36:04.848Z,18.67
2023-12-10T06:38:31.401Z,11.90
2023-12-10T06:40:57.960Z,18.08
2023-12-10T06:43:25.858Z,20.23
2023-12-10T06:45:52.875Z,15.77
2023-12-10T06:48:19.743Z,18.55
2023-12-10T06:50:46.359Z,18.58
2023-12-10T06:53:12.889Z,16.55
2023-12-10T06:55:39.437Z,14.75
2023-12-10T06:58:05.968Z,18.05
2023-12-10T07:00:32.660Z,15.68
2023-12-10T07:02:59.293Z,17.63
2023-12-10T07:05:25.881Z,17.50
2023-12-10T07:07:52.437Z,15.25
2023-12-10T07:10:18.982Z,17.55
2023-12-10T07:12:45.622Z,18.73
2023-12-10T07:15:12.294Z,20.08
2023-12-10T07:17:39.014Z,12.57
2023-12-10T07:20:06.380Z,10.75
2023-12-10T07:22:33.223Z,18.45
2023-12-10T07:25:00.434Z,13.05
2023-12-10T07:27:27.101Z,16.42
2023-12-10T07:29:53.712Z,10.93
2023-12-10T07:32:20.238Z,14.30
2023-12-10T07:34:46.821Z,17.08
2023-12-10T07:37:13.426Z,12.38
2023-12-10T07:39:40.421Z,15.93
2023-12-10T07:42:07.155Z,16.80
2023-12-10T07:44:34.525Z,14.95
2023-12-10T07:47:01.307Z,14.32
2023-12-10T07:49:28.065Z,14.82
2023-12-10T07:51:54.884Z,12.27
2023-12-10T07:54:21.664Z,17.73
2023-12-10T07:56:48.232Z,14.93
2023-12-10T07:59:14.834Z,14.25
2023-12-10T08:01:41.649Z,17.25
2023-12-10T08:04:08.314Z,13.82
2023-12-10T08:06:35.123Z,15.63
2023-12-10T08:09:05.502Z,15.27
2023-12-10T08:11:32.823Z,15.90
2023-12-10T08:14:00.506Z,15.57
2023-12-10T08:16:27.061Z,13.10
2023-12-10T08:18:53.663Z,14.90
2023-12-10T08:21:20.248Z,15.38
2023-12-10T08:23:46.937Z,14.20
2023-12-10T08:26:13.435Z,13.15
2023-12-10T08:28:40.030Z,16.90
2023-12-10T08:31:06.721Z,11.18
2023-12-10T08:33:33.396Z,15.65
2023-12-10T08:35:59.978Z,20.00
2023-12-10T08:38:26.484Z,17.13
2023-12-10T08:40:53.132Z,15.43
2023-12-10T08:43:21.659Z,16.83
2023-12-10T08:45:48.311Z,17.25
2023-12-10T08:48:15.567Z,20.80
2023-12-10T08:50:42.303Z,27.40
2023-12-10T08:53:08.853Z,22.40
2023-12-10T08:55:35.409Z,48.78
2023-12-10T08:58:01.972Z,58.95
2023-12-10T09:00:28.563Z,74.88
2023-12-10T09:02:55.172Z,45.80
2023-12-10T09:05:22.457Z,25.00
2023-12-10T09:07:49.049Z,24.05
2023-12-10T09:10:15.820Z,37.78
2023-12-10T09:12:42.955Z,32.92
2023-12-10T09:15:10.855Z,31.75
2023-12-10T09:17:37.472Z,29.00
2023-12-10T09:20:05.563Z,27.77
2023-12-10T09:22:32.345Z,22.92
2023-12-10T09:24:59.034Z,23.10
2023-12-10T09:27:25.599Z,26.27
2023-12-10T09:29:53.068Z,25.20
2023-12-10T09:32:21.901Z,25.10
2023-12-10T09:34:48.631Z,25.05
2023-12-10T09:37:15.541Z,18.08
2023-12-10T09:39:42.412Z,21.15
2023-12-10T09:42:09.058Z,18.10
2023-12-10T09:44:35.576Z,19.40
2023-12-10T09:47:02.601Z,21.30
2023-12-10T09:49:30.665Z,18.48
2023-12-10T09:51:57.448Z,16.10
2023-12-10T09:54:27.512Z,17.02
2023-12-10T09:56:56.013Z,19.25
2023-12-10T09:59:22.561Z,17.85
2023-12-10T10:01:54.528Z,21.80
2023-12-10T10:04:21.415Z,16.85
2023-12-10T10:06:48.126Z,16.13
2023-12-10T10:09:24.797Z,17.13
2023-12-10T10:14:25.546Z,15.65
2023-12-10T10:16:52.135Z,18.13
2023-12-10T10:19:18.991Z,19.60
2023-12-10T10:21:46.229Z,15.88
2023-12-10T10:24:14.146Z,17.17
2023-12-10T10:26:41.724Z,15.70
2023-12-10T10:29:09.137Z,17.70
2023-12-10T10:31:35.955Z,20.80
2023-12-10T10:34:07.315Z,14.20
2023-12-10T10:36:34.228Z,17.17
2023-12-10T10:39:01.066Z,16.92
2023-12-10T10:41:30.113Z,13.95
2023-12-10T10:44:00.019Z,15.88
2023-12-10T10:46:27.231Z,15.75
2023-12-10T10:48:54.119Z,15.02
2023-12-10T10:51:26.602Z,17.73
2023-12-10T10:53:56.017Z,14.60
2023-12-10T10:56:23.495Z,16.58
2023-12-10T10:58:50.090Z,14.77
2023-12-10T11:01:43.105Z,14.50
2023-12-10T11:04:14.267Z,18.58
2023-12-10T11:06:42.101Z,14.65
2023-12-10T11:09:09.919Z,13.00
2023-12-10T11:11:40.741Z,13.40
2023-12-10T11:14:20.536Z,11.27
2023-12-10T11:16:51.092Z,11.55
2023-12-10T11:19:19.724Z,10.43
2023-12-10T11:21:46.427Z,15.13
2023-12-10T11:24:13.488Z,11.52
2023-12-10T11:26:40.244Z,15.68
2023-12-10T11:29:07.487Z,7.55
2023-12-10T11:31:35.819Z,11.95
2023-12-10T11:34:02.986Z,11.80
2023-12-10T11:36:36.611Z,10.68
2023-12-10T11:39:05.367Z,11.30
2023-12-10T11:41:32.550Z,14.18
2023-12-10T11:43:59.245Z,8.32
2023-12-10T11:46:31.456Z,12.52
2023-12-10T11:49:01.977Z,11.93
2023-12-10T11:51:28.639Z,11.40
2023-12-10T11:53:55.774Z,12.23
2023-12-10T11:56:22.715Z,10.90
2023-12-10T11:58:49.290Z,14.27
2023-12-10T12:01:17.969Z,12.27
2023-12-10T12:03:45.123Z,12.85
2023-12-10T12:06:11.899Z,9.50
2023-12-10T12:08:38.531Z,15.52
2023-12-10T12:11:05.264Z,11.90
2023-12-10T12:13:31.859Z,14.07
2023-12-10T12:15:58.550Z,16.23
2023-12-10T12:18:26.744Z,14.35
2023-12-10T12:20:53.619Z,20.15
2023-12-10T12:23:20.198Z,18.63
2023-12-10T12:25:47.439Z,17.17
2023-12-10T12:28:14.677Z,16.67
2023-12-10T12:30:41.410Z,16.63
2023-12-10T12:33:08.217Z,16.90
2023-12-10T12:35:34.903Z,16.42
2023-12-10T12:38:01.483Z,12.45
2023-12-10T12:40:28.118Z,11.20
2023-12-10T12:42:54.780Z,17.25
2023-12-10T12:45:21.804Z,18.65
2023-12-10T12:47:49.924Z,15.23
2023-12-10T12:50:17.620Z,12.90
2023-12-10T12:52:44.216Z,14.95
2023-12-10T12:55:10.851Z,14.55
2023-12-10T12:57:38.114Z,11.32
2023-12-10T13:00:06.689Z,13.30
2023-12-10T13:02:33.680Z,8.13
2023-12-10T13:05:00.560Z,9.93
2023-12-10T13:07:27.429Z,12.20
2023-12-10T13:09:54.214Z,18.15
2023-12-10T13:12:20.830Z,11.05
2023-12-10T13:14:47.926Z,13.10
2023-12-10T13:17:14.490Z,16.15
2023-12-10T13:19:41.824Z,15.32
2023-12-10T13:22:08.614Z,13.95
2023-12-10T13:24:35.330Z,14.73
2023-12-10T13:27:01.926Z,19.33
2023-12-10T13:29:28.510Z,15.27
2023-12-10T13:31:55.287Z,18.38
2023-12-10T13:34:22.236Z,16.17
2023-12-10T13:36:48.904Z,14.65
2023-12-10T13:39:15.417Z,16.23
2023-12-10T13:41:42.036Z,14.65
2023-12-10T13:44:08.558Z,17.15
2023-12-10T13:46:35.130Z,16.60
2023-12-10T13:49:02.645Z,13.27
2023-12-10T13:51:29.298Z,18.15
2023-12-10T13:53:55.969Z,14.70
2023-12-10T13:56:22.517Z,20.20
2023-12-10T13:58:49.071Z,17.83
2023-12-10T14:01:16.988Z,18.27
2023-12-10T14:03:43.835Z,17.60
2023-12-10T14:06:10.434Z,14.00
2023-12-10T14:08:37.019Z,20.90
2023-12-10T14:11:03.689Z,20.08
2023-12-10T14:13:30.236Z,15.27
2023-12-10T14:15:56.897Z,17.50
2023-12-10T14:18:23.990Z,14.57
2023-12-10T14:20:50.745Z,17.70
2023-12-10T14:23:17.293Z,18.95
2023-12-10T14:25:45.014Z,14.88
2023-12-10T14:28:12.490Z,14.07
2023-12-10T14:30:39.763Z,18.67
2023-12-10T14:33:06.687Z,19.38
2023-12-10T14:35:33.399Z,14.07
2023-12-10T14:37:59.975Z,22.50
2023-12-10T14:40:26.618Z,18.90
2023-12-10T14:42:53.274Z,16.83
2023-12-10T14:45:19.957Z,16.45
2023-12-10T14:47:46.778Z,15.23
2023-12-10T14:50:13.418Z,16.52
2023-12-10T14:52:39.965Z,18.10
2023-12-10T14:55:07.017Z,14.65
2023-12-10T14:57:33.787Z,12.70
2023-12-10T15:00:00.594Z,16.80
2023-12-10T15:02:27.217Z,16.33
2023-12-10T15:04:53.763Z,17.83
2023-12-10T15:07:20.383Z,17.70
2023-12-10T15:09:47.544Z,20.27
2023-12-10T15:12:14.330Z,17.85
2023-12-10T15:14:41.035Z,16.40
2023-12-10T15:17:08.564Z,22.88
2023-12-10T15:19:43.448Z,15.45
2023-12-10T15:22:12.429Z,15.57
2023-12-10T15:24:39.268Z,17.67
2023-12-10T15:27:05.857Z,17.98
2023-12-10T15:29:32.403Z,20.15
2023-12-10T15:31:58.989Z,19.27
2023-12-10T15:34:30.463Z,20.55
2023-12-10T15:36:57.554Z,13.65
2023-12-10T15:39:24.808Z,20.58
2023-12-10T15:41:51.476Z,17.30
2023-12-10T15:44:18.056Z,14.05
2023-12-10T15:46:45.092Z,15.45
2023-12-10T15:49:11.738Z,17.38
2023-12-10T15:51:38.488Z,18.83
2023-12-10T15:54:05.493Z,25.60
2023-12-10T15:56:32.099Z,12.85
2023-12-10T15:58:58.651Z,17.05
2023-12-10T16:01:26.114Z,23.70
2023-12-10T16:03:52.897Z,20.13
2023-12-10T16:06:19.727Z,20.75
2023-12-10T16:08:46.410Z,18.63
2023-12-10T16:11:13.021Z,18.67
2023-12-10T16:13:39.800Z,26.90
2023-12-10T16:16:06.745Z,19.90
2023-12-10T16:18:33.436Z,21.17
2023-12-10T16:21:02.441Z,17.38
2023-12-10T16:23:29.663Z,18.98
2023-12-10T16:25:56.442Z,18.55
2023-12-10T16:28:23.004Z,21.27
2023-12-10T16:30:49.665Z,21.40
2023-12-10T16:33:16.296Z,18.95
2023-12-10T16:35:42.795Z,20.92
2023-12-10T16:38:09.314Z,19.83
2023-12-10T16:40:35.839Z,24.02
2023-12-10T16:43:04.282Z,16.77
2023-12-10T16:45:30.940Z,25.48
2023-12-10T16:47:57.577Z,16.98
2023-12-10T16:50:24.210Z,18.83
2023-12-10T16:52:50.778Z,19.45
2023-12-10T16:55:17.392Z,23.73
2023-12-10T16:57:44.544Z,21.88
2023-12-10T17:00:12.972Z,23.67
2023-12-10T17:02:39.752Z,22.60
2023-12-10T17:05:06.781Z,24.25
2023-12-10T17:07:34.139Z,18.95
2023-12-10T17:10:01.091Z,21.33
2023-12-10T17:12:27.726Z,23.42
2023-12-10T17:14:54.324Z,21.83
2023-12-10T17:17:20.841Z,23.08
2023-12-10T17:19:47.566Z,20.42
2023-12-10T17:22:14.235Z,23.55
2023-12-10T17:24:41.794Z,26.58
2023-12-10T17:27:08.430Z,20.27
2023-12-10T17:29:35.005Z,25.05
2023-12-10T17:32:01.551Z,23.63
2023-12-10T17:34:28.074Z,25.52
2023-12-10T17:36:54.965Z,20.48
2023-12-10T17:39:21.485Z,30.90
2023-12-10T17:41:48.163Z,28.38
2023-12-10T17:44:17.970Z,22.48
2023-12-10T17:46:44.542Z,19.33
2023-12-10T17:49:11.337Z,23.75
2023-12-10T17:51:38.204Z,19.90
2023-12-10T17:54:07.310Z,19.67
2023-12-10T17:56:33.937Z,17.40
2023-12-10T17:59:01.652Z,20.02
2023-12-10T18:01:28.250Z,17.90
2023-12-10T18:03:55.012Z,20.10
2023-12-10T18:06:21.612Z,18.95
2023-12-10T18:08:48.218Z,21.25
2023-12-10T18:11:16.940Z,21.60
2023-12-10T18:13:43.594Z,20.75
2023-12-10T18:16:23.696Z,17.63
2023-12-10T18:18:50.518Z,22.55
2023-12-10T18:21:17.617Z,18.45
2023-12-10T18:23:47.824Z,21.20
2023-12-10T18:26:16.537Z,19.20
2023-12-10T18:28:46.270Z,27.50
2023-12-10T18:31:13.602Z,19.10
2023-12-10T18:33:40.586Z,19.65
2023-12-10T18:36:07.855Z,22.77
2023-12-10T18:38:34.531Z,20.67
2023-12-10T18:41:01.510Z,21.00
2023-12-10T18:43:28.995Z,21.63
2023-12-10T18:45:57.074Z,24.50
2023-12-10T18:48:23.933Z,21.02
2023-12-10T18:50:50.694Z,25.15
2023-12-10T18:53:17.360Z,26.58
2023-12-10T18:55:44.700Z,22.95
2023-12-10T18:58:11.679Z,20.42
2023-12-10T19:00:42.351Z,18.15
2023-12-10T19:03:10.345Z,22.65
2023-12-10T19:05:37.124Z,15.60
2023-12-10T19:08:04.032Z,26.48
2023-12-10T19:10:30.712Z,22.05
2023-12-10T19:12:57.400Z,25.40
2023-12-10T19:15:24.152Z,19.52
2023-12-10T19:17:50.795Z,22.45
2023-12-10T19:20:25.108Z,20.15
2023-12-10T19:22:52.528Z,21.80
2023-12-10T19:25:19.851Z,24.75
2023-12-10T19:27:46.455Z,20.48
2023-12-10T19:30:13.544Z,23.88
2023-12-10T19:32:40.153Z,14.57
2023-12-10T19:35:09.526Z,27.05
2023-12-10T19:37:38.217Z,16.92
2023-12-10T19:40:06.347Z,24.95
2023-12-10T19:42:33.250Z,31.80
2023-12-10T19:44:59.954Z,27.92
2023-12-10T19:47:26.985Z,35.15
2023-12-10T19:49:53.721Z,27.50
2023-12-10T19:52:20.442Z,24.30
2023-12-10T19:54:47.170Z,26.73
2023-12-10T19:57:18.225Z,32.55
2023-12-10T19:59:45.791Z,39.97
2023-12-10T20:02:12.512Z,27.30
2023-12-10T20:04:39.303Z,33.17
2023-12-10T20:07:06.145Z,21.27
2023-12-10T20:09:32.993Z,27.15
2023-12-10T20:11:59.630Z,29.15
2023-12-10T20:14:26.307Z,30.27
2023-12-10T20:16:54.547Z,26.70
2023-12-10T20:19:21.617Z,18.08
2023-12-10T20:21:48.338Z,21.08
2023-12-10T20:24:26.753Z,26.38
2023-12-10T20:26:57.670Z,23.90
2023-12-10T20:29:26.347Z,19.83
2023-12-10T20:31:52.892Z,21.42
2023-12-10T20:34:26.995Z,28.45
2023-12-10T20:36:59.391Z,24.52
2023-12-10T20:39:26.026Z,24.65
2023-12-10T20:41:52.574Z,22.90
2023-12-10T20:44:19.065Z,21.63
2023-12-10T20:46:45.637Z,26.92
2023-12-10T20:49:12.261Z,26.10
2023-12-10T20:51:38.852Z,19.95
2023-12-10T20:54:05.456Z,18.88
2023-12-10T20:56:31.943Z,18.58
2023-12-10T20:58:58.444Z,14.48
2023-12-10T21:01:28.215Z,18.90
2023-12-10T21:03:55.042Z,13.98
2023-12-10T21:06:21.859Z,20.15
2023-12-10T21:08:48.547Z,13.38
2023-12-10T21:11:15.291Z,28.70
2023-12-10T21:13:42.056Z,30.35
2023-12-10T21:16:11.283Z,19.17
2023-12-10T21:18:38.623Z,26.13
2023-12-10T21:21:06.316Z,15.07
2023-12-10T21:23:34.931Z,23.45
2023-12-10T21:26:03.956Z,18.05
2023-12-10T21:28:31.151Z,17.52
2023-12-10T21:30:58.227Z,24.55
2023-12-10T21:33:25.148Z,23.33
2023-12-10T21:35:52.206Z,21.42
2023-12-10T21:38:18.793Z,29.60
2023-12-10T21:40:45.301Z,23.33
2023-12-10T21:43:11.938Z,26.92
2023-12-10T21:45:38.522Z,14.77
2023-12-10T21:48:05.880Z,17.58
2023-12-10T21:50:32.485Z,13.27
2023-12-10T21:52:59.059Z,23.55
2023-12-10T21:55:25.634Z,19.98
2023-12-10T21:57:52.277Z,20.15
2023-12-10T22:00:19.424Z,17.00
2023-12-10T22:02:46.867Z,24.52
2023-12-10T22:05:13.538Z,13.82
2023-12-10T22:07:40.158Z,20.48
2023-12-10T22:10:10.277Z,19.98
2023-12-10T22:12:36.925Z,16.98
2023-12-10T22:15:04.674Z,20.50
2023-12-10T22:17:31.642Z,14.52
2023-12-10T22:19:59.096Z,12.32
2023-12-10T22:22:28.769Z,19.73
2023-12-10T22:24:57.042Z,13.80
2023-12-10T22:27:23.663Z,13.75
2023-12-10T22:29:51.867Z,14.00
2023-12-10T22:32:18.468Z,15.40
2023-12-10T22:34:45.124Z,20.20
2023-12-10T22:37:11.885Z,18.95
2023-12-10T22:39:38.481Z,15.10
2023-12-10T22:42:05.637Z,13.15
2023-12-10T22:44:32.197Z,14.98
2023-12-10T22:46:58.705Z,15.25
2023-12-10T22:49:25.306Z,16.70
2023-12-10T22:51:53.310Z,19.20
2023-12-10T22:54:19.912Z,15.98
2023-12-10T22:56:46.544Z,17.92
2023-12-10T22:59:13.198Z,18.48
2023-12-10T23:01:39.831Z,23.77
2023-12-10T23:04:07.356Z,26.50
2023-12-10T23:06:34.117Z,26.13
2023-12-10T23:09:00.713Z,27.45
2023-12-10T23:11:27.297Z,26.48
2023-12-10T23:13:53.821Z,31.08
2023-12-10T23:16:20.364Z,26.65
2023-12-10T23:18:47.037Z,20.83
2023-12-10T23:21:13.575Z,28.30
2023-12-10T23:23:40.704Z,22.35
2023-12-10T23:26:09.977Z,29.10
2023-12-10T23:28:36.530Z,21.88
2023-12-10T23:31:03.395Z,26.75
2023-12-10T23:33:30.240Z,25.23
2023-12-10T23:35:57.151Z,20.20
2023-12-10T23:38:23.642Z,26.08
2023-12-10T23:40:50.156Z,21.70
2023-12-10T23:43:16.715Z,22.60
2023-12-10T23:45:43.248Z,22.38
2023-12-10T23:48:09.893Z,23.50
2023-12-10T23:50:36.534Z,19.92
2023-12-10T23:53:03.163Z,22.20
2023-12-10T23:55:29.722Z,39.58
2023-12-10T23:57:56.308Z,21.90
